createdAt,value
2022-12-01T00:01:19.056Z,32.85
2022-12-01T00:03:45.945Z,33.72
2022-12-01T00:06:15.852Z,34.38
2022-12-01T00:09:03.025Z,33.38
2022-12-01T00:11:30.207Z,32.38
2022-12-01T00:13:57.033Z,34.47
2022-12-01T00:16:24.015Z,33.45
2022-12-01T00:18:52.642Z,35.08
2022-12-01T00:21:22.265Z,34.55
2022-12-01T00:23:52.766Z,32.58
2022-12-01T00:26:20.641Z,33.33
2022-12-01T00:28:51.614Z,34.33
2022-12-01T00:31:18.595Z,35.40
2022-12-01T00:33:45.695Z,34.40
2022-12-01T00:36:12.667Z,34.88
2022-12-01T00:38:39.766Z,34.78
2022-12-01T00:41:06.865Z,34.75
2022-12-01T00:43:33.755Z,34.93
2022-12-01T00:46:00.623Z,34.90
2022-12-01T00:48:27.515Z,35.38
2022-12-01T00:50:55.249Z,34.80
2022-12-01T00:55:49.414Z,34.17
2022-12-01T00:58:16.462Z,34.72
2022-12-01T01:00:43.191Z,33.42
2022-12-01T01:03:11.019Z,32.67
2022-12-01T01:05:39.844Z,33.80
2022-12-01T01:08:12.378Z,32.80
2022-12-01T01:10:40.512Z,34.25
2022-12-01T01:15:34.457Z,32.85
2022-12-01T01:18:01.317Z,33.15
2022-12-01T01:20:28.678Z,34.55
2022-12-01T01:22:55.455Z,34.13
2022-12-01T01:25:22.817Z,34.22
2022-12-01T01:27:50.152Z,33.85
2022-12-01T01:30:17.318Z,34.92
2022-12-01T01:32:44.160Z,35.43
2022-12-01T01:35:10.894Z,33.92
2022-12-01T01:37:37.719Z,34.20
2022-12-01T01:40:05.064Z,34.92
2022-12-01T01:42:31.809Z,34.83
2022-12-01T01:44:59.232Z,36.03
2022-12-01T01:47:28.882Z,35.20
2022-12-01T01:49:58.287Z,34.30
2022-12-01T01:52:25.474Z,35.95
2022-12-01T01:54:55.637Z,33.90
2022-12-01T01:57:31.968Z,35.75
2022-12-01T02:00:07.807Z,33.25
2022-12-01T02:02:43.387Z,34.05
2022-12-01T02:05:16.193Z,34.72
2022-12-01T02:07:43.506Z,33.97
2022-12-01T02:10:13.782Z,35.30
2022-12-01T02:12:49.412Z,33.50
2022-12-01T02:15:33.457Z,34.65
2022-12-01T02:18:06.056Z,35.53
2022-12-01T02:20:54.485Z,35.40
2022-12-01T02:23:39.923Z,33.25
2022-12-01T02:26:26.944Z,33.35
2022-12-01T02:29:07.536Z,34.13
2022-12-01T02:31:58.851Z,34.22
2022-12-01T02:34:46.631Z,34.28
2022-12-01T02:40:02.251Z,32.85
2022-12-01T02:42:59.566Z,34.47
2022-12-01T02:45:55.877Z,34.35
2022-12-01T02:48:32.975Z,35.42
2022-12-01T02:51:32.955Z,34.63
2022-12-01T02:54:01.684Z,33.85
2022-12-01T02:56:28.529Z,34.08
2022-12-01T02:58:55.574Z,33.90
2022-12-01T03:01:43.566Z,34.30
2022-12-01T03:04:36.884Z,34.45
2022-12-01T03:07:09.454Z,32.33
2022-12-01T03:09:54.992Z,34.13
2022-12-01T03:12:43.238Z,34.22
2022-12-01T03:15:18.404Z,33.00
2022-12-01T03:17:56.358Z,34.10
2022-12-01T03:23:01.472Z,32.55
2022-12-01T03:25:30.239Z,33.97
2022-12-01T03:30:48.037Z,34.17
2022-12-01T03:33:21.184Z,34.42
2022-12-01T03:35:57.596Z,33.08
2022-12-01T03:38:27.230Z,32.30
2022-12-01T03:41:05.824Z,33.80
2022-12-01T03:43:36.844Z,31.30
2022-12-01T03:46:07.787Z,33.53
2022-12-01T03:48:34.938Z,32.28
2022-12-01T03:51:19.791Z,35.58
2022-12-01T03:54:19.676Z,33.53
2022-12-01T03:56:55.507Z,32.47
2022-12-01T03:59:25.180Z,34.17
2022-12-01T04:01:52.913Z,33.88
2022-12-01T04:04:19.720Z,34.08
2022-12-01T04:06:49.941Z,34.40
2022-12-01T04:09:16.938Z,33.50
2022-12-01T04:12:02.091Z,32.20
2022-12-01T04:14:29.962Z,32.45
2022-12-01T04:16:56.715Z,32.05
2022-12-01T04:19:23.510Z,32.28
2022-12-01T04:21:50.291Z,33.13
2022-12-01T04:24:17.159Z,33.33
2022-12-01T04:26:45.929Z,33.72
2022-12-01T04:29:13.464Z,32.25
2022-12-01T04:31:40.838Z,33.95
2022-12-01T04:34:07.895Z,32.35
2022-12-01T04:36:35.559Z,33.35
2022-12-01T04:39:03.140Z,34.28
2022-12-01T04:41:30.061Z,35.75
2022-12-01T04:43:57.160Z,33.53
2022-12-01T04:46:24.801Z,35.03
2022-12-01T04:48:52.021Z,34.00
2022-12-01T04:51:19.151Z,34.15
2022-12-01T04:53:45.956Z,34.83
2022-12-01T04:56:12.733Z,34.72
2022-12-01T04:58:39.685Z,35.70
2022-12-01T05:01:10.603Z,35.45
2022-12-01T05:03:42.842Z,36.92
2022-12-01T05:06:15.742Z,36.05
2022-12-01T05:08:42.824Z,36.33
2022-12-01T05:11:11.922Z,36.00
2022-12-01T05:13:40.229Z,36.20
2022-12-01T05:16:19.091Z,35.38
2022-12-01T05:18:50.554Z,34.00
2022-12-01T05:21:18.454Z,35.35
2022-12-01T05:23:45.690Z,35.85
2022-12-01T05:26:12.599Z,34.10
2022-12-01T05:28:40.965Z,35.42
2022-12-01T05:31:07.829Z,37.13
2022-12-01T05:33:34.765Z,35.00
2022-12-01T05:36:01.502Z,37.03
2022-12-01T05:38:28.237Z,38.28
2022-12-01T05:40:56.256Z,39.22
2022-12-01T05:45:56.918Z,35.47
2022-12-01T05:48:24.044Z,38.63
2022-12-01T05:50:51.024Z,37.90
2022-12-01T05:53:19.057Z,37.88
2022-12-01T05:55:46.116Z,36.28
2022-12-01T05:58:13.674Z,37.42
2022-12-01T06:00:46.927Z,35.15
2022-12-01T06:03:17.897Z,27.52
2022-12-01T06:05:46.682Z,35.40
2022-12-01T06:08:17.164Z,35.75
2022-12-01T06:10:44.648Z,36.90
2022-12-01T06:13:11.518Z,37.90
2022-12-01T06:15:38.284Z,36.20
2022-12-01T06:18:05.061Z,37.70
2022-12-01T06:20:31.842Z,35.83
2022-12-01T06:22:59.548Z,35.33
2022-12-01T06:25:26.455Z,35.92
2022-12-01T06:27:57.711Z,35.97
2022-12-01T06:30:25.358Z,35.15
2022-12-01T06:32:52.109Z,35.90
2022-12-01T06:35:19.135Z,35.88
2022-12-01T06:37:46.108Z,38.05
2022-12-01T06:40:13.211Z,38.30
2022-12-01T06:42:39.975Z,40.38
2022-12-01T06:45:07.142Z,37.17
2022-12-01T06:47:34.079Z,38.13
2022-12-01T06:50:01.080Z,37.47
2022-12-01T06:52:28.018Z,36.92
2022-12-01T06:54:54.811Z,37.50
2022-12-01T06:57:21.634Z,39.55
2022-12-01T06:59:49.203Z,40.10
2022-12-01T07:02:16.985Z,39.53
2022-12-01T07:04:43.915Z,38.42
2022-12-01T07:07:12.003Z,39.50
2022-12-01T07:12:06.282Z,39.08
2022-12-01T07:14:33.301Z,39.27
2022-12-01T07:17:00.164Z,37.80
2022-12-01T07:19:27.124Z,36.88
2022-12-01T07:21:53.901Z,36.42
2022-12-01T07:24:20.633Z,37.92
2022-12-01T07:26:48.117Z,38.30
2022-12-01T07:29:14.913Z,36.38
2022-12-01T07:31:41.777Z,36.50
2022-12-01T07:34:13.137Z,38.30
2022-12-01T07:36:39.922Z,36.45
2022-12-01T07:39:08.342Z,37.85
2022-12-01T07:41:35.561Z,38.03
2022-12-01T07:44:02.945Z,38.40
2022-12-01T07:46:30.068Z,38.00
2022-12-01T07:48:57.582Z,37.53
2022-12-01T07:51:25.307Z,37.17
2022-12-01T07:53:53.709Z,36.00
2022-12-01T07:56:21.690Z,38.75
2022-12-01T07:58:48.931Z,37.50
2022-12-01T08:01:19.074Z,37.80
2022-12-01T08:03:47.522Z,37.55
2022-12-01T08:06:14.296Z,37.58
2022-12-01T08:08:41.820Z,36.78
2022-12-01T08:11:17.606Z,37.17
2022-12-01T08:13:44.817Z,37.08
2022-12-01T08:16:14.436Z,38.73
2022-12-01T08:18:42.267Z,38.15
2022-12-01T08:21:12.276Z,39.47
2022-12-01T08:23:39.533Z,35.65
2022-12-01T08:26:09.374Z,36.73
2022-12-01T08:28:36.879Z,37.25
2022-12-01T08:31:22.768Z,37.10
2022-12-01T08:33:50.741Z,36.22
2022-12-01T08:36:18.733Z,37.25
2022-12-01T08:38:46.461Z,37.13
2022-12-01T08:41:14.122Z,38.80
2022-12-01T08:44:00.078Z,37.42
2022-12-01T08:46:30.899Z,37.95
2022-12-01T08:48:58.277Z,37.58
2022-12-01T08:51:25.789Z,37.83
2022-12-01T08:53:52.642Z,34.65
2022-12-01T08:56:22.753Z,36.47
2022-12-01T08:58:51.007Z,39.53
2022-12-01T09:01:19.033Z,38.17
2022-12-01T09:06:15.556Z,37.35
2022-12-01T09:08:42.905Z,36.83
2022-12-01T09:11:15.377Z,36.78
2022-12-01T09:13:43.398Z,38.00
2022-12-01T09:18:42.640Z,34.67
2022-12-01T09:21:12.066Z,34.78
2022-12-01T09:23:39.603Z,35.95
2022-12-01T09:26:12.114Z,36.45
2022-12-01T09:28:40.498Z,40.35
2022-12-01T09:31:09.420Z,38.85
2022-12-01T09:33:36.291Z,36.60
2022-12-01T09:36:04.698Z,37.97
2022-12-01T09:38:33.370Z,36.47
2022-12-01T09:41:05.240Z,37.25
2022-12-01T09:43:45.702Z,39.38
2022-12-01T09:46:19.639Z,38.50
2022-12-01T09:48:48.405Z,40.05
2022-12-01T09:51:23.879Z,40.00
2022-12-01T09:53:55.067Z,39.10
2022-12-01T09:56:24.021Z,40.20
2022-12-01T09:58:56.326Z,41.78
2022-12-01T10:01:48.127Z,43.75
2022-12-01T10:04:31.332Z,43.97
2022-12-01T10:07:03.487Z,45.05
2022-12-01T10:09:41.287Z,45.17
2022-12-01T10:12:18.142Z,44.50
2022-12-01T10:14:47.417Z,42.75
2022-12-01T10:17:33.054Z,45.97
2022-12-01T10:20:06.045Z,44.58
2022-12-01T10:22:52.030Z,44.85
2022-12-01T10:25:24.670Z,43.90
2022-12-01T10:27:54.368Z,45.33
2022-12-01T10:30:23.821Z,43.92
2022-12-01T10:33:07.286Z,45.88
2022-12-01T10:35:39.292Z,44.40
2022-12-01T10:38:13.168Z,46.65
2022-12-01T10:40:41.898Z,44.00
2022-12-01T10:43:10.678Z,44.65
2022-12-01T10:45:42.084Z,44.83
2022-12-01T10:48:13.067Z,44.72
2022-12-01T10:50:40.933Z,45.70
2022-12-01T10:53:24.359Z,46.35
2022-12-01T10:56:03.835Z,44.70
2022-12-01T10:58:49.587Z,46.33
2022-12-01T11:01:36.899Z,47.15
2022-12-01T11:04:25.494Z,45.63
2022-12-01T11:06:52.379Z,48.22
2022-12-01T11:09:27.908Z,48.95
2022-12-01T11:12:00.338Z,48.40
2022-12-01T11:14:48.309Z,46.53
2022-12-01T11:17:35.842Z,47.72
2022-12-01T11:20:26.801Z,48.47
2022-12-01T11:23:24.271Z,47.78
2022-12-01T11:25:57.199Z,47.63
2022-12-01T11:28:24.407Z,48.55
2022-12-01T11:31:05.185Z,48.28
2022-12-01T11:33:50.038Z,46.03
2022-12-01T11:36:29.295Z,46.03
2022-12-01T11:38:59.504Z,46.85
2022-12-01T11:41:39.395Z,48.40
2022-12-01T11:44:43.229Z,46.08
2022-12-01T11:47:22.618Z,44.47
2022-12-01T11:50:02.235Z,46.35
2022-12-01T11:52:46.282Z,47.72
2022-12-01T11:55:13.087Z,47.30
2022-12-01T11:57:43.655Z,44.65
2022-12-01T12:00:15.679Z,47.92
2022-12-01T12:02:49.140Z,49.15
2022-12-01T12:05:42.462Z,46.15
2022-12-01T12:08:33.883Z,46.25
2022-12-01T12:11:42.404Z,46.67
2022-12-01T12:14:23.595Z,45.50
2022-12-01T12:17:05.588Z,45.25
2022-12-01T12:23:13.133Z,45.38
2022-12-01T12:26:03.933Z,46.13
2022-12-01T12:29:02.300Z,45.38
2022-12-01T12:31:58.619Z,45.90
2022-12-01T12:34:35.195Z,44.70
2022-12-01T12:37:09.546Z,44.30
2022-12-01T12:39:57.739Z,43.75
2022-12-01T12:42:57.195Z,43.33
2022-12-01T12:45:39.406Z,43.83
2022-12-01T12:48:36.025Z,42.35
2022-12-01T12:51:28.444Z,41.78
2022-12-01T12:54:05.666Z,42.83
2022-12-01T12:56:35.127Z,40.75
2022-12-01T12:59:09.793Z,41.03
2022-12-01T13:02:09.706Z,41.17
2022-12-01T13:04:50.876Z,40.55
2022-12-01T13:07:37.305Z,38.88
2022-12-01T13:10:10.351Z,39.25
2022-12-01T13:12:43.497Z,40.30
2022-12-01T13:15:17.101Z,37.80
2022-12-01T13:18:09.623Z,40.60
2022-12-01T13:20:38.085Z,38.42
2022-12-01T13:23:05.616Z,38.90
2022-12-01T13:25:39.931Z,37.60
2022-12-01T13:28:17.223Z,37.85
2022-12-01T13:30:59.767Z,37.90
2022-12-01T13:33:27.471Z,37.63
2022-12-01T13:36:22.635Z,37.55
2022-12-01T13:38:42.454Z,38.45
2022-12-01T13:41:24.458Z,38.40
2022-12-01T13:44:04.158Z,39.35
2022-12-01T13:46:49.578Z,37.88
2022-12-01T13:49:39.602Z,37.58
2022-12-01T13:52:21.510Z,38.58
2022-12-01T13:55:12.256Z,37.25
2022-12-01T13:57:45.036Z,38.45
2022-12-01T14:00:32.551Z,36.13
2022-12-01T14:03:19.198Z,35.13
2022-12-01T14:06:10.547Z,37.67
2022-12-01T14:08:49.036Z,36.45
2022-12-01T14:11:26.191Z,43.00
2022-12-01T14:16:21.705Z,33.75
2022-12-01T14:21:43.561Z,36.05
2022-12-01T14:24:22.760Z,37.10
2022-12-01T14:26:51.143Z,37.88
2022-12-01T14:29:47.454Z,36.78
2022-12-01T14:32:17.288Z,37.35
2022-12-01T14:34:44.765Z,37.80
2022-12-01T14:37:16.172Z,37.08
2022-12-01T14:39:50.210Z,37.13
2022-12-01T14:42:59.057Z,36.25
2022-12-01T14:45:58.173Z,36.47
2022-12-01T14:48:54.956Z,37.35
2022-12-01T14:51:34.180Z,36.20
2022-12-01T14:54:07.072Z,38.05
2022-12-01T14:56:35.892Z,38.33
2022-12-01T14:59:18.258Z,36.30
2022-12-01T15:01:45.133Z,37.17
2022-12-01T15:04:12.015Z,38.15
2022-12-01T15:06:38.852Z,37.25
2022-12-01T15:09:33.981Z,37.97
2022-12-01T15:12:06.907Z,38.97
2022-12-01T15:14:48.816Z,37.65
2022-12-01T15:17:36.964Z,36.25
2022-12-01T15:20:25.049Z,36.40
2022-12-01T15:22:53.022Z,37.72
2022-12-01T15:25:19.931Z,39.92
2022-12-01T15:28:00.840Z,39.75
2022-12-01T15:30:27.993Z,39.95
2022-12-01T15:32:54.939Z,38.83
2022-12-01T15:35:23.272Z,40.10
2022-12-01T15:37:52.194Z,40.55
2022-12-01T15:43:19.101Z,38.40
2022-12-01T15:46:01.094Z,38.80
2022-12-01T15:48:32.897Z,38.63
2022-12-01T15:51:25.609Z,38.22
2022-12-01T15:53:58.051Z,40.28
2022-12-01T15:56:30.728Z,40.30
2022-12-01T15:59:26.467Z,40.35
2022-12-01T16:01:53.666Z,37.42
2022-12-01T16:04:29.328Z,38.80
2022-12-01T16:07:00.395Z,40.90
2022-12-01T16:09:43.445Z,41.22
2022-12-01T16:12:16.086Z,38.90
2022-12-01T16:14:50.846Z,40.80
2022-12-01T16:17:17.804Z,41.15
2022-12-01T16:19:45.512Z,41.33
2022-12-01T16:22:12.568Z,40.47
2022-12-01T16:24:53.865Z,40.30
2022-12-01T16:27:24.584Z,38.92
2022-12-01T16:30:03.676Z,39.08
2022-12-01T16:32:42.572Z,38.22
2022-12-01T16:35:21.371Z,38.42
2022-12-01T16:37:48.204Z,39.58
2022-12-01T16:40:16.870Z,40.22
2022-12-01T16:42:44.360Z,37.95
2022-12-01T16:45:14.749Z,41.35
2022-12-01T16:47:42.865Z,38.80
2022-12-01T16:52:45.388Z,38.60
2022-12-01T16:55:35.004Z,38.92
2022-12-01T16:58:02.276Z,39.22
2022-12-01T17:00:29.888Z,38.20
2022-12-01T17:02:57.836Z,38.50
2022-12-01T17:05:25.050Z,37.38
2022-12-01T17:07:52.361Z,38.53
2022-12-01T17:12:47.128Z,37.40
2022-12-01T17:15:13.893Z,40.47
2022-12-01T17:18:06.542Z,39.95
2022-12-01T17:20:33.407Z,39.15
2022-12-01T17:23:00.385Z,37.58
2022-12-01T17:25:27.231Z,38.78
2022-12-01T17:27:54.085Z,38.22
2022-12-01T17:30:22.049Z,40.15
2022-12-01T17:32:48.926Z,39.67
2022-12-01T17:35:15.721Z,39.60
2022-12-01T17:37:45.556Z,39.05
2022-12-01T17:40:15.791Z,38.50
2022-12-01T17:42:48.592Z,37.58
2022-12-01T17:45:17.672Z,37.95
2022-12-01T17:47:44.578Z,37.47
2022-12-01T17:50:11.944Z,40.35
2022-12-01T17:52:38.877Z,40.30
2022-12-01T17:55:06.299Z,40.67
2022-12-01T17:57:33.217Z,31.42
2022-12-01T18:00:03.857Z,39.05
2022-12-01T18:02:35.472Z,38.60
2022-12-01T18:05:02.595Z,40.50
2022-12-01T18:07:32.361Z,40.25
2022-12-01T18:09:59.451Z,40.30
2022-12-01T18:12:26.243Z,40.85
2022-12-01T18:14:53.059Z,40.42
2022-12-01T18:17:20.136Z,39.47
2022-12-01T18:19:46.980Z,40.92
2022-12-01T18:22:13.726Z,40.30
2022-12-01T18:24:40.573Z,41.38
2022-12-01T18:27:10.288Z,40.70
2022-12-01T18:29:37.132Z,41.20
2022-12-01T18:32:04.088Z,40.72
2022-12-01T18:34:30.908Z,41.33
2022-12-01T18:36:58.036Z,41.38
2022-12-01T18:39:25.073Z,41.00
2022-12-01T18:41:51.988Z,42.65
2022-12-01T18:44:20.614Z,41.67
2022-12-01T18:46:47.457Z,41.95
2022-12-01T18:49:14.283Z,42.80
2022-12-01T18:51:41.306Z,43.80
2022-12-01T18:54:11.972Z,41.80
2022-12-01T18:56:39.020Z,43.45
2022-12-01T18:59:08.530Z,42.60
2022-12-01T19:01:40.905Z,41.97
2022-12-01T19:04:08.978Z,43.05
2022-12-01T19:06:37.904Z,43.63
2022-12-01T19:09:07.124Z,44.38
2022-12-01T19:11:33.988Z,43.45
2022-12-01T19:14:01.574Z,46.10
2022-12-01T19:16:28.728Z,43.28
2022-12-01T19:18:55.755Z,42.72
2022-12-01T19:21:23.008Z,43.70
2022-12-01T19:23:50.208Z,43.72
2022-12-01T19:26:20.468Z,43.03
2022-12-01T19:28:47.906Z,43.30
2022-12-01T19:31:19.052Z,42.60
2022-12-01T19:33:49.499Z,43.20
2022-12-01T19:36:19.315Z,43.72
2022-12-01T19:38:49.120Z,42.67
2022-12-01T19:41:17.092Z,42.08
2022-12-01T19:43:44.088Z,45.17
2022-12-01T19:46:14.000Z,46.95
2022-12-01T19:48:41.952Z,44.53
2022-12-01T19:51:19.652Z,42.47
2022-12-01T19:53:47.010Z,44.50
2022-12-01T19:56:13.841Z,46.80
2022-12-01T19:58:40.709Z,43.72
2022-12-01T20:01:13.468Z,44.88
2022-12-01T20:03:41.911Z,44.53
2022-12-01T20:06:11.122Z,43.92
2022-12-01T20:08:38.502Z,45.50
2022-12-01T20:11:05.975Z,45.35
2022-12-01T20:13:36.658Z,46.13
2022-12-01T20:16:08.191Z,45.28
2022-12-01T20:18:35.937Z,41.58
2022-12-01T20:21:07.361Z,43.05
2022-12-01T20:23:35.289Z,43.00
2022-12-01T20:26:05.023Z,42.45
2022-12-01T20:28:32.875Z,43.42
2022-12-01T20:30:59.720Z,41.55
2022-12-01T20:33:28.945Z,41.85
2022-12-01T20:35:55.767Z,41.85
2022-12-01T20:38:27.255Z,50.70
2022-12-01T20:40:54.791Z,42.90
2022-12-01T20:43:21.992Z,43.73
2022-12-01T20:45:49.000Z,42.80
2022-12-01T20:48:17.707Z,43.72
2022-12-01T20:50:44.759Z,42.00
2022-12-01T20:53:11.733Z,43.30
2022-12-01T20:55:39.092Z,43.30
2022-12-01T20:58:08.539Z,42.53
2022-12-01T21:00:42.725Z,42.60
2022-12-01T21:03:10.757Z,41.80
2022-12-01T21:05:42.995Z,40.47
2022-12-01T21:08:12.215Z,43.33
2022-12-01T21:10:41.343Z,43.15
2022-12-01T21:13:45.050Z,43.28
2022-12-01T21:16:25.760Z,42.88
2022-12-01T21:19:00.274Z,41.22
2022-12-01T21:21:34.428Z,44.38
2022-12-01T21:24:16.940Z,41.97
2022-12-01T21:27:01.463Z,44.35
2022-12-01T21:29:39.022Z,41.75
2022-12-01T21:32:44.341Z,42.75
2022-12-01T21:35:16.538Z,41.33
2022-12-01T21:37:43.491Z,43.10
2022-12-01T21:40:25.113Z,41.25
2022-12-01T21:42:52.476Z,42.30
2022-12-01T21:45:27.976Z,44.63
2022-12-01T21:48:01.131Z,43.72
2022-12-01T21:50:28.002Z,43.20
2022-12-01T21:52:54.814Z,41.88
2022-12-01T21:55:24.507Z,43.20
2022-12-01T21:57:53.178Z,42.33
2022-12-01T22:00:23.401Z,43.40
2022-12-01T22:03:11.921Z,41.83
2022-12-01T22:05:41.234Z,39.95
2022-12-01T22:08:13.884Z,40.13
2022-12-01T22:10:58.933Z,40.72
2022-12-01T22:13:51.013Z,40.80
2022-12-01T22:16:41.200Z,41.35
2022-12-01T22:19:17.127Z,40.08
2022-12-01T22:22:02.032Z,40.42
2022-12-01T22:24:40.323Z,40.83
2022-12-01T22:27:22.505Z,40.95
2022-12-01T22:29:51.813Z,40.28
2022-12-01T22:32:33.100Z,41.28
2022-12-01T22:35:26.320Z,42.60
2022-12-01T22:38:02.842Z,40.20
2022-12-01T22:40:37.875Z,40.35
2022-12-01T22:43:18.861Z,40.80
2022-12-01T22:45:49.364Z,41.10
2022-12-01T22:48:24.353Z,40.47
2022-12-01T22:50:52.067Z,41.20
2022-12-01T22:53:26.008Z,41.60
2022-12-01T22:55:56.542Z,41.38
2022-12-01T22:58:32.408Z,39.97
2022-12-01T23:01:13.655Z,41.28
2022-12-01T23:03:40.493Z,39.35
2022-12-01T23:06:44.561Z,40.97
2022-12-01T23:09:15.420Z,41.88
2022-12-01T23:11:52.168Z,40.17
2022-12-01T23:14:23.494Z,40.88
2022-12-01T23:16:57.146Z,39.35
2022-12-01T23:19:24.940Z,40.88
2022-12-01T23:21:53.124Z,41.45
2022-12-01T23:24:19.876Z,39.90
2022-12-01T23:26:47.234Z,40.72
2022-12-01T23:29:14.198Z,40.80
2022-12-01T23:31:41.562Z,39.53
2022-12-01T23:34:20.571Z,40.65
2022-12-01T23:36:50.934Z,42.83
2022-12-01T23:39:30.002Z,40.03
2022-12-01T23:41:57.111Z,39.67
2022-12-01T23:44:45.392Z,41.63
2022-12-01T23:47:29.270Z,40.88
2022-12-01T23:50:00.719Z,41.05
2022-12-01T23:52:34.986Z,40.60
2022-12-01T23:55:07.664Z,39.55
2022-12-01T23:57:36.841Z,39.50
